Time;durP1;ratioP1;P1;durP2;ratioP2;P2;SDS_P1;SDS_P2;PMS_P1;PMS_P2;Temp;Humidity;BMP_temperature;BMP_pressure;BME280_temperature;BME280_humidity;BME280_pressure;Samples;Min_cycle;Max_cycle;Signal;HPM_P1;HPM_P2
2022/12/06 00:00:44;;;;;;;16.10;6.83;;;;;;;1.27;100.00;101291.88;6152064;28;20262;-73
2022/12/06 00:03:40;;;;;;;17.35;6.38;;;;;;;1.22;100.00;101264.28;6154850;28;20020;-73
2022/12/06 00:06:38;;;;;;;15.15;6.43;;;;;;;1.28;100.00;101280.50;6151839;28;20028;-77
2022/12/06 00:09:33;;;;;;;17.02;6.28;;;;;;;1.32;100.00;101284.66;6152218;28;20117;-75
2022/12/06 00:12:29;;;;;;;13.55;5.13;;;;;;;1.12;100.00;101267.31;6139229;28;20111;-75
2022/12/06 00:15:24;;;;;;;13.10;5.13;;;;;;;0.99;100.00;101241.88;6154619;28;20533;-74
2022/12/06 00:18:19;;;;;;;12.17;5.37;;;;;;;1.25;100.00;101285.03;6152222;28;20301;-75
2022/12/06 00:21:16;;;;;;;13.10;5.03;;;;;;;1.25;100.00;101285.03;6156277;28;20258;-75
2022/12/06 00:24:17;;;;;;;11.05;4.57;;;;;;;1.16;100.00;101266.28;6154602;28;20024;-75
2022/12/06 00:27:12;;;;;;;12.73;5.55;;;;;;;1.11;100.00;101263.00;6153368;28;20369;-75
2022/12/06 00:30:08;;;;;;;9.70;4.30;;;;;;;1.16;100.00;101265.44;6154783;28;20039;-75
2022/12/06 00:33:04;;;;;;;11.40;5.05;;;;;;;1.17;100.00;101261.88;6153520;28;20615;-75
2022/12/06 00:36:08;;;;;;;11.20;4.97;;;;;;;1.19;100.00;101273.97;6155486;28;20036;-75
2022/12/06 00:39:09;;;;;;;11.70;5.25;;;;;;;1.24;100.00;101278.13;6136592;28;20286;-77
2022/12/06 00:42:05;;;;;;;16.80;6.03;;;;;;;1.14;100.00;101262.06;6154512;28;20461;-76
2022/12/06 00:45:00;;;;;;;12.23;5.28;;;;;;;1.23;100.00;101271.19;6154788;28;20077;-74
2022/12/06 00:47:55;;;;;;;11.32;4.80;;;;;;;1.19;100.00;101270.50;6156494;28;20032;-75
2022/12/06 00:50:51;;;;;;;14.23;5.53;;;;;;;1.11;100.00;101249.13;6154835;28;20661;-74
2022/12/06 00:53:47;;;;;;;16.17;6.47;;;;;;;1.07;100.00;101244.97;6156656;28;20024;-75
2022/12/06 00:56:42;;;;;;;10.75;5.03;;;;;;;1.18;100.00;101269.66;6154280;28;20286;-73
2022/12/06 00:59:37;;;;;;;14.23;5.80;;;;;;;1.19;100.00;101273.13;6151721;28;20608;-75
2022/12/06 01:02:33;;;;;;;14.40;5.40;;;;;;;1.06;100.00;101249.34;6148443;28;20270;-74
2022/12/06 01:05:28;;;;;;;11.80;5.20;;;;;;;1.20;100.00;101259.97;6149307;28;20039;-76
2022/12/06 01:08:24;;;;;;;15.65;6.25;;;;;;;1.09;100.00;101254.41;6149260;28;20032;-77
2022/12/06 01:11:21;;;;;;;12.57;4.70;;;;;;;1.12;100.00;101258.66;6148530;28;20488;-78
2022/12/06 01:14:16;;;;;;;9.55;5.03;;;;;;;1.15;100.00;101264.56;6148685;28;20028;-76
2022/12/06 01:17:11;;;;;;;10.37;5.10;;;;;;;1.08;100.00;101247.53;6153988;28;20054;-77
2022/12/06 01:20:07;;;;;;;8.87;4.47;;;;;;;1.13;100.00;101258.59;6149100;28;20089;-75
2022/12/06 01:23:02;;;;;;;11.68;4.70;;;;;;;0.88;100.00;101218.03;6148099;28;20070;-77
2022/12/06 01:25:58;;;;;;;9.00;3.90;;;;;;;1.12;100.00;101262.09;6149146;28;20613;-75
2022/12/06 01:28:53;;;;;;;10.20;4.63;;;;;;;1.07;100.00;101256.25;6148434;28;20115;-74
2022/12/06 01:31:48;;;;;;;9.57;4.83;;;;;;;1.05;100.00;101259.88;6129991;28;20761;-75
2022/12/06 01:34:44;;;;;;;7.93;3.90;;;;;;;0.90;100.00;101248.38;6148282;28;20282;-76
2022/12/06 01:37:39;;;;;;;8.07;3.85;;;;;;;0.90;100.00;101245.75;6148164;28;20032;-74
2022/12/06 01:40:39;;;;;;;8.20;3.72;;;;;;;0.92;100.00;101243.94;6148303;28;20031;-74
2022/12/06 01:43:41;;;;;;;11.77;4.88;;;;;;;0.83;100.00;101244.34;6147731;28;20032;-75
2022/12/06 01:46:41;;;;;;;8.20;3.78;;;;;;;0.75;100.00;101236.03;6148209;28;20028;-74
2022/12/06 01:49:36;;;;;;;7.28;4.00;;;;;;;0.95;100.00;101246.38;6148116;28;20034;-74
2022/12/06 01:52:39;;;;;;;10.43;4.18;;;;;;;0.83;100.00;101231.31;6129096;28;20024;-75
2022/12/06 01:55:36;;;;;;;10.98;4.15;;;;;;;0.93;100.00;101242.16;6129931;28;20055;-75
2022/12/06 01:58:35;;;;;;;10.48;5.15;;;;;;;0.81;100.00;101237.53;6129510;28;20397;-75
2022/12/06 02:01:31;;;;;;;11.00;4.78;;;;;;;0.76;100.00;101224.66;6129666;28;20492;-75
2022/12/06 02:04:28;;;;;;;8.98;4.35;;;;;;;0.75;100.00;101212.56;6147275;28;20056;-75
2022/12/06 02:07:23;;;;;;;9.77;4.25;;;;;;;0.89;100.00;101236.25;6129083;28;20472;-73
2022/12/06 02:10:18;;;;;;;12.25;4.70;;;;;;;0.84;100.00;101232.16;6147714;28;20032;-75
2022/12/06 02:13:14;;;;;;;9.00;4.90;;;;;;;0.86;100.00;101223.34;6146590;28;20380;-75
2022/12/06 02:16:17;;;;;;;11.40;5.13;;;;;;;0.94;100.00;101230.81;6147756;28;20127;-74
2022/12/06 02:19:41;;;;;;;11.85;5.15;;;;;;;0.94;100.00;101223.81;6128809;28;20033;-74
2022/12/06 02:23:14;;;;;;;12.82;4.95;;;;;;;0.95;100.00;101224.69;6145722;28;20111;-76
2022/12/06 02:26:25;;;;;;;11.60;4.90;;;;;;;0.91;100.00;101220.50;6134222;28;20064;-74
2022/12/06 02:29:53;;;;;;;10.25;4.07;;;;;;;0.87;100.00;101201.53;6147248;28;20122;-75
2022/12/06 02:32:58;;;;;;;12.75;6.00;;;;;;;0.78;100.00;101186.31;6146426;28;20054;-75
2022/12/06 02:36:34;;;;;;;13.48;6.13;;;;;;;0.95;100.00;101215.06;6146641;28;20024;-74
2022/12/06 02:43:55;;;;;;;12.45;5.25;;;;;;;0.84;100.00;101190.41;6144815;28;20048;-75
2022/12/06 02:46:52;;;;;;;11.52;5.35;;;;;;;0.83;100.00;101196.53;6091109;28;20060;-74
2022/12/06 02:49:49;;;;;;;12.40;5.45;;;;;;;0.90;100.00;101201.38;6146594;28;20059;-75
2022/12/06 02:52:47;;;;;;;10.80;5.20;;;;;;;0.76;100.00;101177.69;6146096;28;20085;-76
2022/12/06 02:55:43;;;;;;;11.60;5.07;;;;;;;0.87;100.00;101196.31;6146925;28;20028;-76
2022/12/06 02:58:38;;;;;;;10.35;5.03;;;;;;;0.86;100.00;101197.25;6127819;28;20055;-76
2022/12/06 03:01:39;;;;;;;10.27;4.33;;;;;;;0.81;100.00;101182.72;6146439;28;20085;-73
2022/12/06 03:04:51;;;;;;;11.50;5.43;;;;;;;0.83;100.00;101192.16;6128191;28;20427;-74
2022/12/06 03:07:47;;;;;;;11.35;4.95;;;;;;;0.87;100.00;101204.13;6146067;28;20036;-74
2022/12/06 03:10:58;;;;;;;12.70;4.93;;;;;;;0.79;100.00;101188.00;6128315;28;20028;-74
2022/12/06 03:14:07;;;;;;;11.40;4.82;;;;;;;0.82;100.00;101198.28;6127621;28;20035;-74
2022/12/06 03:17:16;;;;;;;10.25;5.20;;;;;;;0.79;100.00;101203.66;6128221;28;20070;-75
2022/12/06 03:20:41;;;;;;;9.57;4.53;;;;;;;0.84;100.00;101206.06;6145583;28;20043;-74
2022/12/06 03:23:43;;;;;;;12.10;4.78;;;;;;;0.73;100.00;101185.69;6143719;28;20115;-74
2022/12/06 03:26:40;;;;;;;10.05;4.35;;;;;;;0.82;100.00;101193.06;6146277;28;20044;-73
2022/12/06 03:29:39;;;;;;;12.80;5.10;;;;;;;0.68;100.00;101181.59;6128149;28;20024;-73
2022/12/06 03:32:36;;;;;;;10.73;4.43;;;;;;;0.81;100.00;101200.97;6145330;28;20039;-75
2022/12/06 03:35:33;;;;;;;9.45;4.47;;;;;;;0.72;100.00;101190.97;6127706;28;20070;-74
2022/12/06 03:38:33;;;;;;;8.63;4.35;;;;;;;0.76;100.00;101192.53;6127143;28;20518;-75
2022/12/06 03:41:35;;;;;;;9.55;4.32;;;;;;;0.71;100.00;101184.91;6128180;28;20173;-74
2022/12/06 03:44:32;;;;;;;8.43;4.65;;;;;;;0.79;100.00;101201.03;6127133;28;20084;-73
2022/12/06 03:47:35;;;;;;;10.43;4.50;;;;;;;0.79;100.00;101195.81;6146026;28;20054;-76
2022/12/06 03:50:38;;;;;;;10.25;3.88;;;;;;;0.68;100.00;101174.59;6127621;28;20089;-74
2022/12/06 03:53:33;;;;;;;8.07;4.05;;;;;;;0.79;100.00;101195.81;6144948;28;20035;-74
2022/12/06 03:56:30;;;;;;;10.67;4.47;;;;;;;0.70;100.00;101182.38;6146238;28;20036;-75
2022/12/06 03:59:25;;;;;;;9.10;4.68;;;;;;;0.58;100.00;101170.75;6145075;28;20032;-76
2022/12/06 04:02:20;;;;;;;9.27;4.50;;;;;;;0.57;100.00;101167.28;6145220;28;20452;-75
2022/12/06 04:05:15;;;;;;;8.80;4.47;;;;;;;0.63;100.00;101175.72;6145731;28;20054;-75
2022/12/06 04:08:11;;;;;;;8.63;4.23;;;;;;;0.59;100.00;101170.69;6145339;28;20051;-74
2022/12/06 04:11:06;;;;;;;8.80;4.07;;;;;;;0.56;100.00;101169.97;6138693;28;20035;-75
2022/12/06 04:14:01;;;;;;;9.93;4.40;;;;;;;0.62;100.00;101180.13;6144777;28;20043;-74
2022/12/06 04:20:12;;;;;;;11.25;5.10;;;;;;;0.43;100.00;101151.44;6145881;28;20282;-75
2022/12/06 04:23:07;;;;;;;7.50;3.60;;;;;;;0.52;100.00;101169.25;6144589;28;20036;-75
2022/12/06 04:26:04;;;;;;;7.83;4.00;;;;;;;0.51;100.00;101171.94;6145610;28;20542;-75
2022/12/06 04:38:41;;;;;;;8.48;3.90;;;;;;;0.40;100.00;101148.13;6145036;28;20068;-74
2022/12/06 04:44:51;;;;;;;7.53;4.13;;;;;;;0.37;100.00;101150.88;6139957;28;20122;-75
2022/12/06 04:47:46;;;;;;;8.93;3.97;;;;;;;0.44;100.00;101155.72;6146986;28;20472;-74
2022/12/06 04:50:46;;;;;;;7.83;4.17;;;;;;;0.46;100.00;101158.28;6149395;28;20488;-76
2022/12/06 04:53:42;;;;;;;7.53;4.03;;;;;;;0.32;100.00;101140.66;6148800;28;20530;-75
2022/12/06 04:56:37;;;;;;;11.57;4.23;;;;;;;0.40;100.00;101142.91;6149679;28;20035;-77
2022/12/06 04:59:32;;;;;;;9.57;4.20;;;;;;;0.26;100.00;101124.44;6149113;28;20027;-75
2022/12/06 05:02:28;;;;;;;7.03;3.90;;;;;;;0.37;100.00;101132.63;6148967;28;20073;-75
2022/12/06 05:05:23;;;;;;;9.80;4.17;;;;;;;0.41;100.00;101139.38;6131054;28;20115;-75
2022/12/06 05:08:18;;;;;;;9.97;4.50;;;;;;;0.30;100.00;101124.22;6148963;28;20277;-74
2022/12/06 05:11:14;;;;;;;8.77;4.20;;;;;;;0.35;100.00;101126.63;6143336;28;20060;-74
2022/12/06 05:14:09;;;;;;;10.50;4.37;;;;;;;0.33;100.00;101120.63;6148421;28;20127;-74
2022/12/06 05:17:04;;;;;;;10.60;4.07;;;;;;;0.42;100.00;101141.06;6148775;28;20055;-74
2022/12/06 05:20:00;;;;;;;8.83;3.87;;;;;;;0.34;100.00;101114.50;6148839;28;20127;-73
2022/12/06 05:22:55;;;;;;;8.43;3.90;;;;;;;0.43;100.00;101119.28;6148183;28;20066;-75
2022/12/06 05:25:56;;;;;;;9.70;4.20;;;;;;;0.44;100.00;101140.06;6148888;28;20036;-74
2022/12/06 05:28:52;;;;;;;10.27;4.28;;;;;;;0.51;100.00;101140.66;6148410;28;20032;-73
2022/12/06 05:31:48;;;;;;;12.68;4.72;;;;;;;0.38;100.00;101116.06;6148539;28;20036;-75
2022/12/06 05:34:43;;;;;;;11.17;4.30;;;;;;;0.55;100.00;101136.97;6148451;28;20046;-74
2022/12/06 05:37:38;;;;;;;9.70;4.47;;;;;;;0.47;100.00;101131.25;6148740;28;20024;-75
2022/12/06 05:40:33;;;;;;;12.83;3.97;;;;;;;0.50;100.00;101120.69;6148638;28;20067;-74
2022/12/06 05:43:29;;;;;;;13.00;4.17;;;;;;;0.49;100.00;101111.19;6147646;28;20270;-75
2022/12/06 05:46:24;;;;;;;11.68;4.97;;;;;;;0.59;100.00;101133.31;6130347;28;20766;-75
2022/12/06 05:49:20;;;;;;;13.80;4.95;;;;;;;0.59;100.00;101135.91;6147337;28;20046;-74
2022/12/06 05:52:15;;;;;;;9.80;4.63;;;;;;;0.58;100.00;101123.78;6147782;28;20114;-74
2022/12/06 05:55:10;;;;;;;11.65;5.15;;;;;;;0.63;100.00;101124.41;6148243;28;20480;-74
2022/12/06 05:58:06;;;;;;;13.73;5.53;;;;;;;0.53;100.00;101104.91;6147766;28;20036;-75
2022/12/06 06:01:02;;;;;;;11.60;5.18;;;;;;;0.55;100.00;101103.03;6148201;28;20032;-73
2022/12/06 06:03:57;;;;;;;11.30;5.35;;;;;;;0.58;100.00;101105.50;6147326;28;20393;-74
2022/12/06 06:06:52;;;;;;;15.90;5.77;;;;;;;0.70;100.00;101123.22;6147821;28;20096;-74
2022/12/06 06:09:48;;;;;;;15.65;6.03;;;;;;;0.66;100.00;101105.13;6147928;28;20305;-74
2022/12/06 06:12:43;;;;;;;11.70;5.37;;;;;;;0.69;100.00;101107.59;6147039;28;20072;-75
2022/12/06 06:15:38;;;;;;;14.32;6.10;;;;;;;0.72;100.00;101105.69;6147764;28;20041;-74
2022/12/06 06:18:34;;;;;;;13.32;6.18;;;;;;;0.78;100.00;101118.47;6146633;28;20031;-73
2022/12/06 06:21:30;;;;;;;12.27;5.03;;;;;;;0.63;100.00;101093.09;6147460;28;20043;-73
2022/12/06 06:24:25;;;;;;;12.93;5.00;;;;;;;0.84;100.00;101122.53;6147302;28;20048;-75
2022/12/06 06:27:20;;;;;;;14.33;5.80;;;;;;;0.80;100.00;101110.53;6147220;28;20032;-72
2022/12/06 06:30:16;;;;;;;13.20;5.37;;;;;;;0.72;100.00;101099.63;6147547;28;20077;-74
2022/12/06 06:33:12;;;;;;;12.23;5.20;;;;;;;0.78;100.00;101107.16;6146621;28;20106;-75
2022/12/06 06:36:07;;;;;;;12.40;5.70;;;;;;;0.74;100.00;101103.00;6147265;28;20035;-74
2022/12/06 06:39:02;;;;;;;13.57;6.25;;;;;;;0.81;100.00;101115.72;6146525;28;20027;-74
2022/12/06 06:41:58;;;;;;;10.20;5.47;;;;;;;0.78;100.00;101110.63;6146324;28;20040;-74
2022/12/06 06:44:54;;;;;;;13.33;5.30;;;;;;;0.74;100.00;101100.41;6146849;28;20036;-74
2022/12/06 06:47:49;;;;;;;14.93;5.72;;;;;;;0.88;100.00;101113.63;6146310;28;20043;-74
2022/12/06 06:50:45;;;;;;;13.17;5.67;;;;;;;0.86;100.00;101112.88;6146787;28;20024;-75
2022/12/06 06:53:40;;;;;;;14.27;5.53;;;;;;;0.96;100.00;101112.34;6145498;28;20274;-75
2022/12/06 06:56:36;;;;;;;13.40;6.40;;;;;;;0.95;100.00;101123.69;6128445;28;20438;-74
2022/12/06 06:59:31;;;;;;;14.10;6.00;;;;;;;0.81;100.00;101102.66;6146647;28;20031;-75
2022/12/06 07:02:26;;;;;;;10.83;5.27;;;;;;;0.96;100.00;101128.00;6146102;28;20104;-76
2022/12/06 07:05:22;;;;;;;11.83;5.53;;;;;;;0.97;100.00;101129.69;6146288;28;20023;-75
2022/12/06 07:08:17;;;;;;;13.88;5.50;;;;;;;0.89;100.00;101125.78;6147325;28;20090;-77
2022/12/06 07:11:13;;;;;;;17.25;5.72;;;;;;;0.88;100.00;101124.91;6130005;28;20052;-74
2022/12/06 07:14:08;;;;;;;11.43;5.13;;;;;;;0.96;100.00;101134.97;6141486;28;20031;-77
2022/12/06 07:17:04;;;;;;;14.27;5.73;;;;;;;0.84;100.00;101115.56;6145490;28;20036;-75
2022/12/06 07:19:59;;;;;;;14.83;5.83;;;;;;;0.96;100.00;101128.00;6142453;28;20127;-75
2022/12/06 07:22:54;;;;;;;14.47;5.63;;;;;;;0.97;100.00;101137.53;6142379;28;20482;-75
2022/12/06 07:26:00;;;;;;;15.80;6.03;;;;;;;0.99;100.00;101133.06;6145720;28;20328;-76
2022/12/06 07:28:56;;;;;;;16.67;6.22;;;;;;;1.11;100.00;101148.13;6146173;28;20501;-76
2022/12/06 07:31:52;;;;;;;14.50;6.35;;;;;;;1.12;100.00;101154.19;6145342;28;20046;-75
2022/12/06 07:34:47;;;;;;;11.47;5.03;;;;;;;1.09;100.00;101151.72;6146364;28;20039;-74
2022/12/06 07:37:43;;;;;;;11.10;5.77;;;;;;;1.08;100.00;101137.84;6145866;28;20038;-75
2022/12/06 07:40:39;;;;;;;11.35;5.15;;;;;;;1.16;100.00;101143.53;6145034;28;20032;-76
2022/12/06 07:46:48;;;;;;;12.32;5.57;;;;;;;1.11;100.00;101140.28;6144806;28;20032;-75
2022/12/06 07:49:43;;;;;;;15.07;5.22;;;;;;;1.20;100.00;101142.44;6145347;28;20040;-73
2022/12/06 07:52:39;;;;;;;16.97;6.70;;;;;;;0.97;100.00;101102.75;6144948;28;20085;-74
2022/12/06 07:55:35;;;;;;;12.43;5.60;;;;;;;1.17;100.00;101134.75;6145423;28;20031;-75
2022/12/06 07:58:30;;;;;;;16.13;6.10;;;;;;;1.14;100.00;101132.31;6145564;28;20043;-75
2022/12/06 08:01:25;;;;;;;14.37;5.23;;;;;;;1.18;100.00;101120.78;6145686;28;20399;-74
2022/12/06 08:04:21;;;;;;;11.40;4.70;;;;;;;1.28;100.00;101130.78;6144878;28;20032;-73
2022/12/06 08:07:16;;;;;;;9.32;4.50;;;;;;;1.30;100.00;101136.78;6145502;28;20097;-74
2022/12/06 08:10:11;;;;;;;12.47;5.70;;;;;;;1.36;100.00;101142.53;6138850;28;20397;-73
2022/12/06 08:13:07;;;;;;;13.50;5.27;;;;;;;1.40;100.00;101143.22;6144399;28;20346;-74
2022/12/06 08:16:06;;;;;;;13.70;5.10;;;;;;;1.41;100.00;101139.69;6145277;28;20103;-73
2022/12/06 08:19:01;;;;;;;14.32;4.70;;;;;;;1.41;100.00;101132.72;6140793;28;20040;-74
2022/12/06 08:21:56;;;;;;;11.38;4.40;;;;;;;1.41;100.00;101129.25;6145581;28;20059;-73
2022/12/06 08:24:52;;;;;;;12.07;5.60;;;;;;;1.58;100.00;101157.97;6149932;28;20438;-74
2022/12/06 08:27:47;;;;;;;12.00;4.03;;;;;;;1.50;100.00;101136.59;6150085;28;20070;-74
2022/12/06 08:30:42;;;;;;;9.73;4.50;;;;;;;1.52;100.00;101137.38;6149940;28;20418;-74
2022/12/06 08:33:38;;;;;;;13.23;4.93;;;;;;;1.64;100.00;101155.03;6149109;28;20127;-74
2022/12/06 08:36:33;;;;;;;9.65;4.18;;;;;;;1.55;100.00;101139.84;6149708;28;20624;-75
2022/12/06 08:39:29;;;;;;;16.87;5.67;;;;;;;1.62;100.00;101138.59;6130652;28;20036;-74
2022/12/06 08:42:24;;;;;;;16.27;5.32;;;;;;;1.75;100.00;101150.09;6130469;28;20023;-75
2022/12/06 08:45:19;;;;;;;24.55;5.00;;;;;;;1.84;100.00;101165.31;6149596;28;20028;-75
2022/12/06 08:48:15;;;;;;;15.37;4.80;;;;;;;1.85;100.00;101153.91;6150106;28;20042;-73
2022/12/06 08:51:10;;;;;;;16.57;5.40;;;;;;;1.82;100.00;101151.50;6149558;28;20054;-76
2022/12/06 08:54:07;;;;;;;22.30;5.77;;;;;;;1.84;100.00;101149.63;6148296;28;20035;-75
2022/12/06 08:57:03;;;;;;;20.88;5.93;;;;;;;1.89;100.00;101147.63;6149360;28;20036;-74
2022/12/06 08:59:58;;;;;;;17.50;5.80;;;;;;;2.02;100.00;101166.13;6149597;28;20035;-75
2022/12/06 09:02:54;;;;;;;27.63;5.83;;;;;;;1.99;100.00;101159.28;6148152;28;20039;-75
2022/12/06 09:05:49;;;;;;;28.00;6.30;;;;;;;2.00;100.00;101150.53;6149015;28;20488;-75
2022/12/06 09:08:45;;;;;;;22.50;6.53;;;;;;;2.04;100.00;101157.25;6149168;28;20077;-74
2022/12/06 09:11:41;;;;;;;30.80;7.95;;;;;;;2.03;100.00;101150.38;6142030;28;20042;-74
2022/12/06 09:14:36;;;;;;;34.20;6.93;;;;;;;2.05;100.00;101151.13;6148124;28;20032;-74
2022/12/06 09:17:31;;;;;;;18.33;6.50;;;;;;;2.10;100.00;101151.72;6149033;28;20448;-75
2022/12/06 09:20:27;;;;;;;17.47;5.87;;;;;;;2.19;100.00;101169.53;6148982;28;20259;-74
2022/12/06 09:23:22;;;;;;;18.17;6.50;;;;;;;2.22;100.00;101166.75;6147194;28;20036;-74
2022/12/06 09:26:17;;;;;;;19.40;6.45;;;;;;;2.18;100.00;101160.00;6130561;28;20274;-75
2022/12/06 09:29:14;;;;;;;19.67;6.17;;;;;;;2.26;100.00;101170.88;6148966;28;20081;-76
2022/12/06 09:32:09;;;;;;;16.83;5.90;;;;;;;2.22;100.00;101151.06;6147520;28;20032;-74
2022/12/06 09:35:04;;;;;;;20.47;6.73;;;;;;;2.34;100.00;101170.47;6148323;28;20035;-75
2022/12/06 09:38:02;;;;;;;23.95;7.13;;;;;;;2.31;100.00;101144.50;6148587;28;20317;-75
2022/12/06 09:41:25;;;;;;;20.63;7.15;;;;;;;2.30;100.00;101148.88;6130643;28;20028;-75
2022/12/06 09:44:45;;;;;;;24.40;7.65;;;;;;;2.42;100.00;101158.66;6147706;28;20593;-77
2022/12/06 09:48:02;;;;;;;21.27;7.28;;;;;;;2.43;100.00;101164.75;6148298;28;20039;-76
2022/12/06 09:51:16;;;;;;;25.70;7.43;;;;;;;2.44;100.00;101165.59;6148522;28;20032;-76
2022/12/06 09:54:25;;;;;;;20.33;7.60;;;;;;;2.37;100.00;101149.38;6147325;28;20035;-75
2022/12/06 09:57:20;;;;;;;22.45;6.50;;;;;;;2.48;100.00;101162.72;6148298;28;20043;-75
2022/12/06 10:00:21;;;;;;;18.83;5.67;;;;;;;2.44;100.00;101150.75;6147620;28;20032;-75
2022/12/06 10:03:46;;;;;;;28.88;7.07;;;;;;;2.46;100.00;101161.13;6146261;28;20019;-75
2022/12/06 10:06:48;;;;;;;22.67;8.05;;;;;;;2.40;100.00;101142.22;6136102;28;20378;-77
2022/12/06 10:10:21;;;;;;;22.40;7.75;;;;;;;2.41;100.00;101137.84;6147283;28;20123;-76
2022/12/06 10:13:27;;;;;;;23.25;6.95;;;;;;;2.56;100.00;101155.28;6129182;28;20032;-75
2022/12/06 10:16:25;;;;;;;20.92;7.32;;;;;;;2.61;100.00;101162.91;6129361;28;20093;-74
2022/12/06 10:19:53;;;;;;;21.55;6.78;;;;;;;2.64;100.00;101147.00;6147328;28;20147;-76
2022/12/06 10:22:55;;;;;;;21.83;7.32;;;;;;;2.71;100.00;101154.47;6128694;28;20085;-75
2022/12/06 10:26:05;;;;;;;17.15;6.07;;;;;;;2.56;100.00;101123.03;6146904;28;20034;-77
2022/12/06 10:29:12;;;;;;;22.73;6.70;;;;;;;2.60;100.00;101142.91;6147176;28;20039;-76
2022/12/06 10:32:18;;;;;;;19.70;6.78;;;;;;;2.52;100.00;101122.38;6125847;28;20036;-75
2022/12/06 10:35:39;;;;;;;20.23;7.05;;;;;;;2.57;100.00;101132.59;6112403;28;20059;-77
2022/12/06 10:38:37;;;;;;;;;;;;;;;2.71;100.00;101153.63;6149247;28;20023;-77
2022/12/06 10:41:41;;;;;;;22.65;6.78;;;;;;;2.70;100.00;101151.91;6129365;28;20477;-76
2022/12/06 10:44:40;;;;;;;31.77;6.43;;;;;;;2.68;100.00;101145.94;6127052;28;20053;-74
2022/12/06 10:47:40;;;;;;;33.95;6.68;;;;;;;2.71;100.00;101148.38;6129162;28;20039;-76
2022/12/06 10:50:38;;;;;;;21.52;7.45;;;;;;;2.71;100.00;101143.16;6117175;28;20385;-75
2022/12/06 10:53:39;;;;;;;24.58;7.78;;;;;;;2.60;100.00;101121.97;6145374;28;20054;-77
2022/12/06 10:56:38;;;;;;;23.77;7.15;;;;;;;2.74;100.00;101137.75;6145441;28;20131;-77
2022/12/06 10:59:42;;;;;;;20.42;6.93;;;;;;;2.75;100.00;101139.41;6146396;28;20031;-76
2022/12/06 11:02:53;;;;;;;17.80;5.95;;;;;;;2.66;100.00;101116.38;6145257;28;20024;-76
2022/12/06 11:05:53;;;;;;;23.90;7.15;;;;;;;2.71;100.00;101122.19;6146528;28;20032;-75
2022/12/06 11:08:51;;;;;;;20.48;6.25;;;;;;;2.82;100.00;101140.78;6128668;28;20036;-75
2022/12/06 11:11:48;;;;;;;19.20;6.72;;;;;;;2.80;100.00;101132.97;6128400;28;20400;-77
2022/12/06 11:14:47;;;;;;;21.85;7.15;;;;;;;2.84;100.00;101133.66;6138467;28;20392;-77
2022/12/06 11:17:46;;;;;;;22.83;6.78;;;;;;;2.76;100.00;101128.88;6128366;28;20028;-77
2022/12/06 11:20:48;;;;;;;20.73;5.78;;;;;;;2.79;100.00;101120.00;6146169;28;20038;-77
2022/12/06 11:23:59;;;;;;;19.77;6.07;;;;;;;2.88;100.00;101127.34;6127006;28;20097;-76
2022/12/06 11:27:15;;;;;;;19.85;6.30;;;;;;;2.90;100.00;101135.94;6147116;28;20032;-75
2022/12/06 11:30:14;;;;;;;19.75;5.72;;;;;;;2.79;100.00;101106.91;6124105;28;20103;-77
2022/12/06 11:33:09;;;;;;;18.77;6.78;;;;;;;2.85;100.00;101115.22;6145585;28;20032;-75
2022/12/06 11:36:05;;;;;;;21.27;6.82;;;;;;;2.77;100.00;101106.16;6145381;28;20094;-75
2022/12/06 11:39:01;;;;;;;18.50;6.05;;;;;;;2.90;100.00;101117.63;6145669;28;20110;-75
2022/12/06 11:41:58;;;;;;;18.15;6.15;;;;;;;2.77;100.00;101098.28;6127001;28;20032;-76
2022/12/06 11:44:58;;;;;;;17.55;5.57;;;;;;;2.65;100.00;101072.81;6048373;28;20583;-78
2022/12/06 11:47:54;;;;;;;18.73;5.93;;;;;;;2.88;100.00;101119.47;6124195;28;20510;-76
2022/12/06 11:50:51;;;;;;;16.00;6.05;;;;;;;2.88;100.00;101104.59;6145728;28;20041;-78
2022/12/06 11:53:58;;;;;;;22.27;7.30;;;;;;;2.84;100.00;101108.31;6145621;28;20451;-76
2022/12/06 11:56:56;;;;;;;16.25;5.22;;;;;;;2.90;100.00;101113.22;6130234;28;20035;-76
2022/12/06 12:00:24;;;;;;;16.83;5.15;;;;;;;2.88;100.00;101103.78;6132470;28;20067;-76
2022/12/06 12:03:34;;;;;;;17.67;5.32;;;;;;;2.87;100.00;101097.69;6093333;28;20084;-76
2022/12/06 12:06:29;;;;;;;19.77;6.07;;;;;;;2.88;100.00;101099.34;6149577;28;20043;-77
2022/12/06 12:09:28;;;;;;;21.67;6.10;;;;;;;2.89;100.00;101100.19;6130507;28;20036;-78
2022/12/06 12:15:51;;;;;;;22.13;6.32;;;;;;;2.85;100.00;101109.19;6134862;28;20481;-77
2022/12/06 12:18:54;;;;;;;15.65;5.07;;;;;;;2.64;100.00;101063.25;6143863;28;20047;-78
2022/12/06 12:21:49;;;;;;;19.52;6.30;;;;;;;2.65;100.00;101062.31;6150056;28;20045;-77
2022/12/06 12:24:51;;;;;;;17.80;6.18;;;;;;;2.89;100.00;101095.81;6149928;28;20089;-77
2022/12/06 12:27:49;;;;;;;17.65;5.32;;;;;;;2.91;100.00;101103.56;6150319;28;20032;-76
2022/12/06 12:30:51;;;;;;;16.10;5.88;;;;;;;2.91;100.00;101099.19;6149696;28;20036;-76
2022/12/06 12:33:47;;;;;;;15.07;5.43;;;;;;;2.84;100.00;101083.91;6130771;28;20663;-75
2022/12/06 12:36:50;;;;;;;14.65;4.82;;;;;;;2.82;100.00;101075.31;6150372;28;20032;-76
2022/12/06 12:39:52;;;;;;;14.88;5.65;;;;;;;2.93;100.00;101086.00;6129023;28;20075;-77
2022/12/06 12:42:47;;;;;;;;;;;;;;;2.98;100.00;101090.06;6149484;28;20077;-75
2022/12/06 12:46:02;;;;;;;18.00;5.83;;;;;;;2.98;100.00;101090.06;6149444;28;19912;-75
2022/12/06 12:49:20;;;;;;;13.48;3.88;;;;;;;2.81;100.00;101060.53;6114390;28;20489;-77
2022/12/06 12:52:31;;;;;;;13.05;3.90;;;;;;;2.92;100.00;101089.56;6150004;28;20024;-76
2022/12/06 12:55:29;;;;;;;13.38;4.38;;;;;;;2.89;100.00;101094.97;6130484;28;20096;-75
2022/12/06 12:58:24;;;;;;;11.85;3.42;;;;;;;2.77;100.00;101067.69;6145740;28;20032;-75
2022/12/06 13:01:22;;;;;;;11.80;3.80;;;;;;;2.89;100.00;101089.72;6149575;28;20105;-76
2022/12/06 13:04:40;;;;;;;14.52;4.20;;;;;;;2.92;100.00;101084.31;6148851;28;20022;-75
2022/12/06 13:07:39;;;;;;;12.90;4.43;;;;;;;2.83;100.00;101071.75;6147338;28;20112;-78
2022/12/06 13:10:36;;;;;;;17.17;5.35;;;;;;;2.79;100.00;101072.88;6130466;28;20031;-74
2022/12/06 13:13:47;;;;;;;15.88;6.10;;;;;;;2.71;100.00;101051.50;6148621;28;20024;-76
2022/12/06 13:16:43;;;;;;;19.20;7.07;;;;;;;2.81;100.00;101078.84;6131054;28;20036;-75
2022/12/06 13:19:41;;;;;;;21.45;6.28;;;;;;;2.70;100.00;101070.75;6131158;28;20422;-75
2022/12/06 13:22:43;;;;;;;20.67;5.57;;;;;;;2.70;100.00;101062.91;6129719;28;20038;-76
2022/12/06 13:25:39;;;;;;;17.27;5.90;;;;;;;2.64;100.00;101055.41;6131585;28;20043;-76
2022/12/06 13:28:39;;;;;;;16.88;6.32;;;;;;;2.75;100.00;101076.56;6130600;28;20028;-77
2022/12/06 13:31:38;;;;;;;17.20;5.88;;;;;;;2.75;100.00;101076.56;6130874;28;20032;-78
2022/12/06 13:34:36;;;;;;;17.50;5.72;;;;;;;2.72;100.00;101071.50;6148046;28;20028;-77
2022/12/06 13:37:42;;;;;;;17.42;6.13;;;;;;;2.77;100.00;101082.59;6130277;28;20500;-79
2022/12/06 13:40:42;;;;;;;20.83;6.15;;;;;;;2.52;100.00;101040.41;6148601;28;20089;-77
2022/12/06 13:43:37;;;;;;;16.27;5.88;;;;;;;2.75;100.00;101076.56;6148270;28;20388;-75
2022/12/06 13:46:32;;;;;;;11.60;4.40;;;;;;;2.71;100.00;101078.53;6148436;28;20034;-78
2022/12/06 13:49:41;;;;;;;14.63;5.13;;;;;;;2.65;100.00;101064.94;6148071;28;20032;-77
2022/12/06 13:52:46;;;;;;;14.65;6.35;;;;;;;2.75;100.00;101072.19;6121550;28;20770;-77
2022/12/06 13:55:48;;;;;;;12.85;4.72;;;;;;;2.70;100.00;101074.22;6149108;28;20399;-77
2022/12/06 13:58:51;;;;;;;15.77;5.40;;;;;;;2.70;100.00;101070.75;6148341;28;20028;-77
2022/12/06 14:01:47;;;;;;;13.55;4.72;;;;;;;2.64;100.00;101074.56;6147778;28;20089;-77
2022/12/06 14:04:43;;;;;;;18.20;6.30;;;;;;;2.57;100.00;101067.16;6129675;28;20137;-76
2022/12/06 14:07:39;;;;;;;15.00;5.32;;;;;;;2.63;100.00;101078.13;6147704;28;20067;-75
2022/12/06 14:10:34;;;;;;;16.17;4.87;;;;;;;2.69;100.00;101071.72;6147774;28;20031;-76
2022/12/06 14:13:29;;;;;;;14.43;4.70;;;;;;;2.67;100.00;101070.94;6147410;28;20032;-76